createdAt,value
2022-10-18T00:02:12.244Z,7.53
2022-10-18T00:04:39.030Z,7.03
2022-10-18T00:07:05.855Z,6.78
2022-10-18T00:09:32.493Z,6.80
2022-10-18T00:11:59.110Z,7.13
2022-10-18T00:14:25.743Z,7.40
2022-10-18T00:16:52.325Z,6.95
2022-10-18T00:19:18.890Z,6.57
2022-10-18T00:24:17.164Z,7.15
2022-10-18T00:26:44.536Z,7.53
2022-10-18T00:29:14.283Z,7.20
2022-10-18T00:31:42.704Z,8.32
2022-10-18T00:34:15.238Z,7.47
2022-10-18T00:36:42.853Z,7.10
2022-10-18T00:39:15.407Z,8.10
2022-10-18T00:41:42.212Z,8.00
2022-10-18T00:44:11.560Z,8.35
2022-10-18T00:46:43.766Z,8.80
2022-10-18T00:49:21.687Z,8.15
2022-10-18T00:51:58.029Z,8.45
2022-10-18T00:54:25.281Z,8.95
2022-10-18T00:56:52.289Z,9.48
2022-10-18T00:59:19.830Z,9.90
2022-10-18T01:01:46.603Z,9.77
2022-10-18T01:04:17.342Z,9.82
2022-10-18T01:07:32.035Z,9.82
2022-10-18T01:10:27.762Z,9.13
2022-10-18T01:13:03.500Z,9.95
2022-10-18T01:15:42.252Z,10.13
2022-10-18T01:18:20.905Z,10.18
2022-10-18T01:21:09.950Z,10.80
2022-10-18T01:23:57.839Z,10.82
2022-10-18T01:26:58.970Z,10.27
2022-10-18T01:30:11.636Z,9.75
2022-10-18T01:32:49.696Z,10.05
2022-10-18T01:35:21.247Z,10.13
2022-10-18T01:37:50.221Z,10.07
2022-10-18T01:40:20.717Z,10.68
2022-10-18T01:42:49.291Z,10.68
2022-10-18T01:45:17.154Z,10.48
2022-10-18T01:47:45.487Z,9.57
2022-10-18T01:50:12.432Z,10.57
2022-10-18T01:52:57.393Z,10.90
2022-10-18T01:55:39.044Z,10.25
2022-10-18T01:58:31.000Z,10.82
2022-10-18T02:01:08.486Z,11.10
2022-10-18T02:03:43.115Z,10.57
2022-10-18T02:06:23.632Z,10.43
2022-10-18T02:09:13.635Z,10.65
2022-10-18T02:11:43.179Z,11.18
2022-10-18T02:14:12.889Z,10.93
2022-10-18T02:16:49.215Z,10.93
2022-10-18T02:19:36.874Z,11.82
2022-10-18T02:22:04.651Z,10.88
2022-10-18T02:24:39.527Z,12.23
2022-10-18T02:27:06.410Z,10.98
2022-10-18T02:29:33.864Z,11.43
2022-10-18T02:32:14.745Z,11.35
2022-10-18T02:34:49.130Z,11.93
2022-10-18T02:37:17.303Z,11.57
2022-10-18T02:39:47.584Z,11.05
2022-10-18T02:42:15.042Z,12.57
2022-10-18T02:44:41.737Z,11.95
2022-10-18T02:47:10.588Z,11.82
2022-10-18T02:49:37.134Z,12.93
2022-10-18T02:52:03.860Z,12.25
2022-10-18T02:54:30.501Z,12.10
2022-10-18T02:56:57.140Z,12.05
2022-10-18T02:59:23.697Z,12.20
2022-10-18T03:01:50.316Z,11.43
2022-10-18T03:04:17.013Z,11.65
2022-10-18T03:06:43.718Z,12.07
2022-10-18T03:09:10.327Z,11.68
2022-10-18T03:11:36.933Z,11.07
2022-10-18T03:14:03.583Z,9.93
2022-10-18T03:16:30.434Z,11.07
2022-10-18T03:18:57.028Z,10.48
2022-10-18T03:21:24.010Z,11.60
2022-10-18T03:23:50.674Z,10.75
2022-10-18T03:26:17.434Z,11.35
2022-10-18T03:28:44.053Z,11.70
2022-10-18T03:31:10.670Z,10.98
2022-10-18T03:33:37.259Z,11.60
2022-10-18T03:36:04.099Z,10.95
2022-10-18T03:38:30.921Z,11.13
2022-10-18T03:40:57.549Z,10.93
2022-10-18T03:43:24.207Z,10.60
2022-10-18T03:45:51.252Z,11.25
2022-10-18T03:48:18.133Z,10.60
2022-10-18T03:50:44.801Z,11.32
2022-10-18T03:53:11.817Z,10.90
2022-10-18T03:55:38.966Z,11.70
2022-10-18T03:58:05.612Z,10.45
2022-10-18T04:00:32.872Z,10.55
2022-10-18T04:02:59.594Z,10.60
2022-10-18T04:05:28.202Z,11.25
2022-10-18T04:07:55.043Z,9.73
2022-10-18T04:10:21.944Z,10.13
2022-10-18T04:12:48.511Z,10.95
2022-10-18T04:15:15.203Z,10.68
2022-10-18T04:17:42.020Z,10.60
2022-10-18T04:20:09.010Z,9.98
2022-10-18T04:22:35.725Z,10.43
2022-10-18T04:25:02.383Z,9.73
2022-10-18T04:27:29.079Z,10.02
2022-10-18T04:29:55.972Z,10.38
2022-10-18T04:32:22.813Z,9.88
2022-10-18T04:34:49.363Z,10.00
2022-10-18T04:37:17.198Z,9.35
2022-10-18T04:39:49.838Z,7.85
2022-10-18T04:42:19.395Z,8.32
2022-10-18T04:44:45.997Z,8.15
2022-10-18T04:47:12.633Z,8.50
2022-10-18T04:49:39.393Z,7.82
2022-10-18T04:52:06.372Z,8.00
2022-10-18T04:54:32.995Z,8.60
2022-10-18T04:56:59.683Z,8.45
2022-10-18T04:59:26.335Z,8.20
2022-10-18T05:01:52.978Z,8.83
2022-10-18T05:04:19.597Z,8.90
2022-10-18T05:06:46.742Z,8.82
2022-10-18T05:09:13.343Z,9.45
2022-10-18T05:11:40.025Z,9.20
2022-10-18T05:14:06.629Z,9.63
2022-10-18T05:16:33.150Z,9.57
2022-10-18T05:18:59.737Z,10.10
2022-10-18T05:21:26.294Z,9.55
2022-10-18T05:23:56.235Z,9.05
2022-10-18T05:26:23.040Z,11.30
2022-10-18T05:28:50.522Z,9.52
2022-10-18T05:31:17.791Z,9.50
2022-10-18T05:33:44.350Z,9.88
2022-10-18T05:36:11.201Z,10.43
2022-10-18T05:38:45.391Z,10.50
2022-10-18T05:41:12.885Z,10.70
2022-10-18T05:43:40.557Z,9.98
2022-10-18T05:46:13.538Z,10.63
2022-10-18T05:48:41.878Z,11.75
2022-10-18T05:51:08.593Z,13.27
2022-10-18T05:53:37.403Z,12.43
2022-10-18T05:56:05.451Z,13.48
2022-10-18T05:58:32.211Z,14.02
2022-10-18T06:01:02.333Z,13.35
2022-10-18T06:03:30.601Z,14.35
2022-10-18T06:06:05.523Z,13.20
2022-10-18T06:08:32.535Z,12.90
2022-10-18T06:10:59.271Z,12.75
2022-10-18T06:13:26.106Z,12.00
2022-10-18T06:15:57.389Z,11.32
2022-10-18T06:18:23.999Z,11.15
2022-10-18T06:20:56.527Z,11.77
2022-10-18T06:23:23.058Z,11.63
2022-10-18T06:25:49.631Z,11.35
2022-10-18T06:28:16.826Z,11.60
2022-10-18T06:30:43.854Z,11.07
2022-10-18T06:33:11.945Z,10.98
2022-10-18T06:35:47.586Z,11.27
2022-10-18T06:38:14.124Z,11.23
2022-10-18T06:40:40.665Z,12.07
2022-10-18T06:43:20.169Z,12.45
2022-10-18T06:45:47.623Z,11.88
2022-10-18T06:48:14.306Z,11.85
2022-10-18T06:50:40.918Z,12.73
2022-10-18T06:53:08.923Z,11.75
2022-10-18T06:55:35.946Z,12.10
2022-10-18T06:58:02.760Z,14.00
2022-10-18T07:00:29.389Z,13.32
2022-10-18T07:02:58.356Z,13.32
2022-10-18T07:05:25.098Z,12.52
2022-10-18T07:07:54.298Z,13.35
2022-10-18T07:10:23.806Z,13.00
2022-10-18T07:12:53.483Z,12.02
2022-10-18T07:15:24.004Z,11.80
2022-10-18T07:17:50.730Z,11.82
2022-10-18T07:20:17.563Z,11.15
2022-10-18T07:22:44.119Z,10.82
2022-10-18T07:25:10.665Z,11.35
2022-10-18T07:27:42.235Z,10.52
2022-10-18T07:30:10.699Z,11.15
2022-10-18T07:32:37.500Z,11.73
2022-10-18T07:35:04.467Z,11.73
2022-10-18T07:37:31.254Z,11.80
2022-10-18T07:39:58.047Z,11.43
2022-10-18T07:42:24.931Z,10.82
2022-10-18T07:44:51.519Z,9.32
2022-10-18T07:47:18.148Z,8.77
2022-10-18T07:49:44.683Z,8.43
2022-10-18T07:52:11.696Z,8.52
2022-10-18T07:54:38.360Z,9.15
2022-10-18T07:57:05.247Z,8.52
2022-10-18T07:59:31.872Z,9.02
2022-10-18T08:01:58.520Z,12.80
2022-10-18T08:04:25.101Z,9.02
2022-10-18T08:06:51.748Z,8.35
2022-10-18T08:09:18.291Z,8.75
2022-10-18T08:11:44.809Z,9.10
2022-10-18T08:14:11.346Z,8.18
2022-10-18T08:16:37.879Z,8.95
2022-10-18T08:19:04.685Z,8.68
2022-10-18T08:21:31.518Z,7.18
2022-10-18T08:23:58.060Z,8.23
2022-10-18T08:26:24.732Z,7.95
2022-10-18T08:29:10.270Z,8.30
2022-10-18T08:31:38.229Z,8.70
2022-10-18T08:34:04.777Z,8.18
2022-10-18T08:36:31.436Z,8.52
2022-10-18T08:38:58.035Z,8.57
2022-10-18T08:41:36.827Z,8.52
2022-10-18T08:44:22.771Z,8.23
2022-10-18T08:46:52.956Z,7.70
2022-10-18T08:49:47.146Z,7.63
2022-10-18T08:52:23.979Z,8.18
2022-10-18T08:55:11.411Z,9.15
2022-10-18T08:57:38.033Z,9.35
2022-10-18T09:00:22.540Z,9.35
2022-10-18T09:03:27.993Z,9.25
2022-10-18T09:06:15.983Z,8.25
2022-10-18T09:09:11.121Z,8.35
2022-10-18T09:11:58.148Z,9.10
2022-10-18T09:14:37.672Z,8.85
2022-10-18T09:17:15.968Z,8.88
2022-10-18T09:20:10.595Z,7.75
2022-10-18T09:22:53.382Z,9.43
2022-10-18T09:25:43.203Z,8.38
2022-10-18T09:28:26.161Z,8.35
2022-10-18T09:31:30.353Z,8.05
2022-10-18T09:34:26.476Z,8.07
2022-10-18T09:36:53.449Z,8.05
2022-10-18T09:39:25.530Z,8.63
2022-10-18T09:42:05.060Z,8.10
2022-10-18T09:44:55.025Z,7.68
2022-10-18T09:47:26.358Z,8.45
2022-10-18T09:49:58.968Z,8.15
2022-10-18T09:52:32.773Z,8.23
2022-10-18T09:55:03.313Z,8.63
2022-10-18T09:57:42.033Z,7.50
2022-10-18T10:00:20.845Z,7.72
2022-10-18T10:02:47.501Z,7.57
2022-10-18T10:05:14.934Z,8.98
2022-10-18T10:07:44.458Z,8.50
2022-10-18T10:10:19.499Z,8.23
2022-10-18T10:12:46.395Z,8.15
2022-10-18T10:15:23.404Z,8.52
2022-10-18T10:18:17.743Z,8.00
2022-10-18T10:20:47.214Z,7.83
2022-10-18T10:23:26.370Z,9.13
2022-10-18T10:25:55.533Z,7.72
2022-10-18T10:28:26.938Z,9.27
2022-10-18T10:30:53.575Z,8.35
2022-10-18T10:33:38.509Z,7.65
2022-10-18T10:36:16.364Z,7.88
2022-10-18T10:38:42.875Z,8.15
2022-10-18T10:41:21.602Z,8.38
2022-10-18T10:43:49.574Z,8.37
2022-10-18T10:46:19.127Z,9.63
2022-10-18T10:48:50.298Z,10.23
2022-10-18T10:51:28.755Z,9.32
2022-10-18T10:54:20.381Z,9.25
2022-10-18T10:57:11.185Z,9.55
2022-10-18T10:59:44.832Z,10.68
2022-10-18T11:02:15.143Z,9.82
2022-10-18T11:04:42.460Z,9.30
2022-10-18T11:07:08.961Z,12.57
2022-10-18T11:09:50.898Z,10.80
2022-10-18T11:12:37.935Z,10.95
2022-10-18T11:15:11.667Z,10.50
2022-10-18T11:17:48.657Z,10.90
2022-10-18T11:20:38.192Z,9.60
2022-10-18T11:23:12.863Z,9.65
2022-10-18T11:26:08.895Z,9.35
2022-10-18T11:28:56.507Z,10.52
2022-10-18T11:32:00.924Z,9.98
2022-10-18T11:34:52.829Z,10.23
2022-10-18T11:37:54.771Z,11.00
2022-10-18T11:40:50.783Z,10.57
2022-10-18T11:44:01.864Z,10.13
2022-10-18T11:46:51.799Z,10.50
2022-10-18T11:49:56.171Z,10.27
2022-10-18T11:52:39.342Z,10.38
2022-10-18T11:55:32.056Z,9.93
2022-10-18T11:58:14.537Z,10.75
2022-10-18T12:01:06.379Z,10.18
2022-10-18T12:03:49.781Z,9.82
2022-10-18T12:06:20.735Z,9.83
2022-10-18T12:08:53.076Z,9.57
2022-10-18T12:11:24.711Z,10.82
2022-10-18T12:13:58.847Z,9.93
2022-10-18T12:16:49.904Z,10.63
2022-10-18T12:19:26.351Z,10.45
2022-10-18T12:21:57.208Z,9.43
2022-10-18T12:24:28.419Z,10.02
2022-10-18T12:26:59.562Z,10.00
2022-10-18T12:29:50.640Z,8.50
2022-10-18T12:32:24.520Z,9.73
2022-10-18T12:35:18.425Z,8.90
2022-10-18T12:38:13.660Z,8.27
2022-10-18T12:40:45.858Z,9.10
2022-10-18T12:43:25.558Z,8.35
2022-10-18T12:46:00.616Z,8.70
2022-10-18T12:48:59.591Z,8.68
2022-10-18T12:51:26.207Z,8.52
2022-10-18T12:54:01.803Z,8.80
2022-10-18T12:56:28.360Z,8.45
2022-10-18T12:59:13.657Z,9.57
2022-10-18T13:01:55.309Z,9.75
2022-10-18T13:04:40.304Z,9.13
2022-10-18T13:07:18.989Z,10.32
2022-10-18T13:10:10.297Z,10.80
2022-10-18T13:12:56.783Z,9.95
2022-10-18T13:15:46.467Z,9.88
2022-10-18T13:18:29.113Z,10.57
2022-10-18T13:21:21.223Z,10.15
2022-10-18T13:24:26.225Z,11.43
2022-10-18T13:27:24.326Z,11.23
2022-10-18T13:30:02.887Z,10.35
2022-10-18T13:33:29.696Z,10.23
2022-10-18T13:36:00.726Z,11.18
2022-10-18T13:38:43.763Z,10.23
2022-10-18T13:41:14.095Z,9.05
2022-10-18T13:44:23.654Z,10.02
2022-10-18T13:46:50.208Z,9.52
2022-10-18T13:49:38.184Z,9.82
2022-10-18T13:52:45.743Z,9.73
2022-10-18T13:55:42.420Z,9.18
2022-10-18T13:58:48.813Z,9.23
2022-10-18T14:01:40.272Z,8.68
2022-10-18T14:04:22.560Z,8.05
2022-10-18T14:06:51.880Z,8.48
2022-10-18T14:09:45.083Z,8.75
2022-10-18T14:12:35.298Z,9.40
2022-10-18T14:15:20.526Z,9.95
2022-10-18T14:18:16.026Z,10.25
2022-10-18T14:21:12.330Z,10.93
2022-10-18T14:23:44.559Z,10.77
2022-10-18T14:26:16.755Z,10.35
2022-10-18T14:29:00.561Z,10.13
2022-10-18T14:31:27.937Z,9.23
2022-10-18T14:33:58.292Z,10.63
2022-10-18T14:36:27.811Z,10.60
2022-10-18T14:39:03.593Z,10.35
2022-10-18T14:41:47.310Z,10.23
2022-10-18T14:44:17.545Z,9.98
2022-10-18T14:46:52.382Z,9.85
2022-10-18T14:49:20.474Z,10.68
2022-10-18T14:51:51.726Z,10.35
2022-10-18T14:54:37.321Z,9.85
2022-10-18T14:57:05.570Z,10.60
2022-10-18T14:59:51.532Z,10.57
2022-10-18T15:02:26.112Z,10.85
2022-10-18T15:04:59.156Z,10.57
2022-10-18T15:07:29.128Z,10.48
2022-10-18T15:09:58.828Z,10.07
2022-10-18T15:12:26.664Z,10.88
2022-10-18T15:14:54.295Z,10.30
2022-10-18T15:17:22.867Z,10.23
2022-10-18T15:20:03.326Z,10.52
2022-10-18T15:22:33.592Z,10.60
2022-10-18T15:25:29.448Z,11.07
2022-10-18T15:27:59.463Z,10.48
2022-10-18T15:30:38.415Z,9.88
2022-10-18T15:33:10.549Z,9.27
2022-10-18T15:35:39.058Z,10.30
2022-10-18T15:38:24.260Z,10.55
2022-10-18T15:40:51.002Z,10.63
2022-10-18T15:43:23.644Z,11.37
2022-10-18T15:46:01.722Z,10.70
2022-10-18T15:48:38.248Z,11.73
2022-10-18T15:51:27.688Z,11.90
2022-10-18T15:53:54.627Z,10.75
2022-10-18T15:56:35.741Z,11.50
2022-10-18T15:59:21.055Z,12.50
2022-10-18T16:01:47.918Z,12.20
2022-10-18T16:04:18.322Z,11.83
2022-10-18T16:06:44.903Z,11.20
2022-10-18T16:09:17.342Z,11.73
2022-10-18T16:11:45.025Z,11.33
2022-10-18T16:14:11.586Z,11.43
2022-10-18T16:16:40.109Z,10.93
2022-10-18T16:19:07.880Z,11.43
2022-10-18T16:21:37.718Z,11.70
2022-10-18T16:24:04.692Z,12.30
2022-10-18T16:26:31.950Z,11.35
2022-10-18T16:28:59.312Z,11.60
2022-10-18T16:31:28.932Z,11.97
2022-10-18T16:33:57.098Z,12.40
2022-10-18T16:36:30.298Z,13.07
2022-10-18T16:39:00.721Z,12.07
2022-10-18T16:41:27.816Z,13.20
2022-10-18T16:43:54.521Z,12.40
2022-10-18T16:46:24.528Z,12.23
2022-10-18T16:48:51.519Z,14.37
2022-10-18T16:51:18.356Z,13.70
2022-10-18T16:53:45.451Z,14.67
2022-10-18T16:56:18.088Z,13.87
2022-10-18T16:58:45.327Z,13.70
2022-10-18T17:01:14.339Z,13.47
2022-10-18T17:03:41.318Z,14.17
2022-10-18T17:06:17.587Z,14.37
2022-10-18T17:08:44.686Z,13.50
2022-10-18T17:11:12.730Z,14.17
2022-10-18T17:13:39.311Z,14.20
2022-10-18T17:16:07.032Z,15.93
2022-10-18T17:18:33.689Z,14.73
2022-10-18T17:21:03.123Z,15.10
2022-10-18T17:23:30.160Z,15.93
2022-10-18T17:26:06.843Z,14.20
2022-10-18T17:28:38.010Z,14.57
2022-10-18T17:31:07.153Z,14.00
2022-10-18T17:33:33.956Z,14.57
2022-10-18T17:36:00.514Z,13.93
2022-10-18T17:38:27.176Z,15.13
2022-10-18T17:40:54.499Z,14.50
2022-10-18T17:43:21.044Z,13.93
2022-10-18T17:45:55.567Z,14.33
2022-10-18T17:48:22.799Z,13.73
2022-10-18T17:50:49.359Z,14.97
2022-10-18T17:53:22.813Z,14.73
2022-10-18T17:55:49.530Z,15.50
2022-10-18T17:58:16.207Z,15.03
2022-10-18T18:00:42.782Z,16.00
2022-10-18T18:03:09.502Z,15.27
2022-10-18T18:05:36.330Z,14.93
2022-10-18T18:08:05.186Z,16.17
2022-10-18T18:10:35.426Z,14.60
2022-10-18T18:13:02.748Z,16.10
2022-10-18T18:15:29.732Z,17.50
2022-10-18T18:17:57.639Z,14.87
2022-10-18T18:20:25.743Z,17.80
2022-10-18T18:22:52.664Z,16.63
2022-10-18T18:25:19.395Z,16.67
2022-10-18T18:27:46.204Z,16.57
2022-10-18T18:30:13.043Z,16.63
2022-10-18T18:32:39.864Z,17.17
2022-10-18T18:35:06.880Z,16.47
2022-10-18T18:37:33.565Z,16.27
2022-10-18T18:40:00.170Z,16.77
2022-10-18T18:42:26.823Z,15.13
2022-10-18T18:44:53.343Z,15.20
2022-10-18T18:47:21.869Z,13.37
2022-10-18T18:49:48.880Z,14.10
2022-10-18T18:52:15.485Z,14.27
2022-10-18T18:54:42.105Z,13.83
2022-10-18T18:57:08.760Z,13.33
2022-10-18T18:59:35.519Z,13.77
2022-10-18T19:02:02.131Z,12.13
2022-10-18T19:04:29.116Z,11.67
2022-10-18T19:06:55.815Z,11.80
2022-10-18T19:09:22.978Z,10.90
2022-10-18T19:11:52.880Z,10.73
2022-10-18T19:14:23.621Z,11.23
2022-10-18T19:16:51.725Z,9.57
2022-10-18T19:19:21.058Z,9.37
2022-10-18T19:21:53.510Z,9.37
2022-10-18T19:24:21.890Z,8.57
2022-10-18T19:26:51.502Z,8.97
2022-10-18T19:29:23.527Z,8.50
2022-10-18T19:31:52.046Z,8.23
2022-10-18T19:34:20.358Z,7.90
2022-10-18T19:36:48.512Z,7.77
2022-10-18T19:39:21.033Z,8.30
2022-10-18T19:41:52.033Z,7.80
2022-10-18T19:44:20.150Z,8.30
2022-10-18T19:46:47.552Z,7.90
2022-10-18T19:49:14.615Z,7.67
2022-10-18T19:51:41.177Z,7.63
2022-10-18T19:54:07.942Z,8.43
2022-10-18T19:56:34.490Z,7.90
2022-10-18T19:59:01.414Z,8.27
2022-10-18T20:01:29.228Z,7.87
2022-10-18T20:03:58.401Z,8.33
2022-10-18T20:06:25.001Z,8.60
2022-10-18T20:08:51.774Z,8.80
2022-10-18T20:11:25.266Z,8.27
2022-10-18T20:13:52.728Z,8.00
2022-10-18T20:16:26.906Z,7.50
2022-10-18T20:18:56.794Z,7.50
2022-10-18T20:21:23.356Z,7.73
2022-10-18T20:23:49.923Z,7.40
2022-10-18T20:26:20.826Z,7.93
2022-10-18T20:28:49.408Z,6.93
2022-10-18T20:31:19.023Z,6.60
2022-10-18T20:33:47.045Z,7.07
2022-10-18T20:36:16.262Z,6.60
2022-10-18T20:38:45.360Z,6.40
2022-10-18T20:41:17.686Z,7.53
2022-10-18T20:43:45.298Z,6.70
2022-10-18T20:46:11.952Z,7.23
2022-10-18T20:48:38.887Z,7.10
2022-10-18T20:51:10.364Z,6.93
2022-10-18T20:53:37.716Z,7.30
2022-10-18T20:56:12.963Z,6.47
2022-10-18T20:58:41.509Z,6.60
2022-10-18T21:01:09.034Z,6.97
2022-10-18T21:03:41.504Z,6.27
2022-10-18T21:06:13.200Z,5.80
2022-10-18T21:08:39.832Z,6.67
2022-10-18T21:11:07.146Z,6.53
2022-10-18T21:13:33.896Z,6.37
2022-10-18T21:16:01.022Z,6.87
2022-10-18T21:18:29.660Z,6.30
2022-10-18T21:20:56.383Z,6.00
2022-10-18T21:23:22.958Z,5.80
2022-10-18T21:25:49.651Z,5.33
2022-10-18T21:28:17.967Z,5.40
2022-10-18T21:30:44.511Z,5.30
2022-10-18T21:33:11.131Z,4.87
2022-10-18T21:35:38.597Z,5.57
2022-10-18T21:38:05.605Z,4.90
2022-10-18T21:40:35.069Z,4.80
2022-10-18T21:43:01.661Z,4.97
2022-10-18T21:45:28.315Z,4.53
2022-10-18T21:47:54.891Z,4.30
2022-10-18T21:50:21.487Z,4.30
2022-10-18T21:52:48.672Z,4.20
2022-10-18T21:55:15.322Z,4.00
2022-10-18T21:57:41.921Z,4.40
2022-10-18T22:00:09.122Z,4.17
2022-10-18T22:02:35.898Z,4.37
2022-10-18T22:05:03.819Z,4.77
2022-10-18T22:07:32.048Z,4.07
2022-10-18T22:09:58.776Z,3.97
2022-10-18T22:12:25.499Z,3.93
2022-10-18T22:14:52.040Z,3.77
2022-10-18T22:17:18.830Z,3.53
2022-10-18T22:19:47.212Z,3.80
2022-10-18T22:22:13.908Z,3.97
2022-10-18T22:24:46.334Z,3.20
2022-10-18T22:27:12.959Z,3.50
2022-10-18T22:29:39.627Z,3.40
2022-10-18T22:32:06.262Z,3.40
2022-10-18T22:34:32.835Z,3.27
2022-10-18T22:36:59.502Z,3.80
2022-10-18T22:39:26.060Z,3.30
2022-10-18T22:41:55.864Z,3.17
2022-10-18T22:44:23.041Z,3.23
2022-10-18T22:46:49.801Z,3.43
2022-10-18T22:49:16.441Z,2.80
2022-10-18T22:51:43.252Z,3.10
2022-10-18T22:54:10.114Z,3.27
2022-10-18T22:56:36.702Z,2.83
2022-10-18T22:59:03.685Z,3.30
2022-10-18T23:01:30.326Z,3.03
2022-10-18T23:03:59.909Z,3.10
2022-10-18T23:06:36.834Z,2.90
2022-10-18T23:09:07.670Z,3.13
2022-10-18T23:11:35.409Z,2.77
2022-10-18T23:14:03.951Z,2.57
2022-10-18T23:16:31.288Z,2.97
2022-10-18T23:18:59.071Z,3.33
2022-10-18T23:21:28.011Z,2.90
2022-10-18T23:23:55.117Z,2.73
2022-10-18T23:26:24.055Z,3.20
2022-10-18T23:28:52.264Z,3.50
2022-10-18T23:31:24.645Z,3.13
2022-10-18T23:33:54.618Z,3.50
2022-10-18T23:36:22.514Z,3.30
2022-10-18T23:38:49.133Z,3.50
2022-10-18T23:41:16.825Z,3.30
2022-10-18T23:43:44.141Z,3.23
2022-10-18T23:46:11.796Z,3.10
2022-10-18T23:48:38.581Z,3.00
2022-10-18T23:51:06.316Z,2.90
2022-10-18T23:53:33.823Z,3.33
2022-10-18T23:56:03.589Z,3.20
2022-10-18T23:58:32.060Z,3.30
